createdAt,value
2018-07-14T00:00:50.418Z,1010.60
2018-07-14T00:01:50.404Z,1010.65
2018-07-14T00:02:50.387Z,1010.57
2018-07-14T00:03:50.374Z,1010.61
2018-07-14T00:04:50.369Z,1010.64
2018-07-14T00:05:50.339Z,1010.58
2018-07-14T00:06:50.325Z,1010.61
2018-07-14T00:07:50.308Z,1010.60
2018-07-14T00:08:50.293Z,1010.62
2018-07-14T00:09:50.276Z,1010.62
2018-07-14T00:10:50.273Z,1010.65
2018-07-14T00:11:50.243Z,1010.61
2018-07-14T00:12:50.227Z,1010.67
2018-07-14T00:13:50.212Z,1010.66
2018-07-14T00:14:50.197Z,1010.63
2018-07-14T00:15:50.193Z,1010.64
2018-07-14T00:16:50.164Z,1010.62
2018-07-14T00:17:50.148Z,1010.62
2018-07-14T00:18:50.134Z,1010.60
2018-07-14T00:19:50.120Z,1010.59
2018-07-14T00:20:50.114Z,1010.62
2018-07-14T00:21:50.085Z,1010.58
2018-07-14T00:22:50.070Z,1010.58
2018-07-14T00:23:50.053Z,1010.61
2018-07-14T00:24:50.040Z,1010.64
2018-07-14T00:25:50.031Z,1010.61
2018-07-14T00:26:50.005Z,1010.65
2018-07-14T00:27:49.990Z,1010.61
2018-07-14T00:28:49.973Z,1010.62
2018-07-14T00:29:49.956Z,1010.59
2018-07-14T00:30:49.953Z,1010.60
2018-07-14T00:31:49.927Z,1010.60
2018-07-14T00:32:49.908Z,1010.56
2018-07-14T00:33:49.894Z,1010.55
2018-07-14T00:34:49.876Z,1010.55
2018-07-14T00:35:49.869Z,1010.56
2018-07-14T00:36:49.843Z,1010.55
2018-07-14T00:37:49.829Z,1010.55
2018-07-14T00:38:49.811Z,1010.54
2018-07-14T00:39:49.794Z,1010.52
2018-07-14T00:40:49.789Z,1010.53
2018-07-14T00:41:49.763Z,1010.53
2018-07-14T00:42:49.745Z,1010.55
2018-07-14T00:43:49.730Z,1010.56
2018-07-14T00:44:49.711Z,1010.59
2018-07-14T00:45:49.707Z,1010.62
2018-07-14T00:46:49.681Z,1010.63
2018-07-14T00:47:49.663Z,1010.61
2018-07-14T00:48:49.647Z,1010.60
2018-07-14T00:49:49.631Z,1010.61
2018-07-14T00:50:49.626Z,1010.59
2018-07-14T00:51:49.600Z,1010.58
2018-07-14T00:52:49.584Z,1010.60
2018-07-14T00:53:49.565Z,1010.61
2018-07-14T00:54:49.558Z,1010.59
2018-07-14T00:55:49.545Z,1010.64
2018-07-14T00:56:49.517Z,1010.64
2018-07-14T00:57:49.500Z,1010.66
2018-07-14T00:58:49.486Z,1010.67
2018-07-14T00:59:49.469Z,1010.67
2018-07-14T01:00:49.462Z,1010.70
2018-07-14T01:01:49.435Z,1010.70
2018-07-14T01:02:49.419Z,1010.71
2018-07-14T01:03:49.403Z,1010.71
2018-07-14T01:04:49.387Z,1010.76
2018-07-14T01:05:49.380Z,1010.77
2018-07-14T01:06:49.353Z,1010.77
2018-07-14T01:07:49.338Z,1010.76
2018-07-14T01:08:49.324Z,1010.80
2018-07-14T01:09:49.317Z,1010.80
2018-07-14T01:10:49.288Z,1010.79
2018-07-14T01:11:49.270Z,1010.75
2018-07-14T01:12:49.254Z,1010.75
2018-07-14T01:13:49.239Z,1010.78
2018-07-14T01:14:49.233Z,1010.76
2018-07-14T01:15:49.206Z,1010.76
2018-07-14T01:16:49.188Z,1010.76
2018-07-14T01:17:49.227Z,1010.72
2018-07-14T01:18:49.155Z,1010.76
2018-07-14T01:19:49.149Z,1010.77
2018-07-14T01:20:49.122Z,1010.79
2018-07-14T01:21:49.105Z,1010.75
2018-07-14T01:22:49.090Z,1010.78
2018-07-14T01:23:49.072Z,1010.76
2018-07-14T01:24:49.065Z,1010.77
2018-07-14T01:25:49.039Z,1010.74
2018-07-14T01:26:49.022Z,1010.74
2018-07-14T01:27:49.006Z,1010.76
2018-07-14T01:28:48.988Z,1010.76
2018-07-14T01:29:48.982Z,1010.74
2018-07-14T01:30:48.956Z,1010.75
2018-07-14T01:31:48.941Z,1010.75
2018-07-14T01:32:48.923Z,1010.74
2018-07-14T01:33:48.906Z,1010.78
2018-07-14T01:34:48.912Z,1010.76
2018-07-14T01:35:48.873Z,1010.79
2018-07-14T01:36:48.853Z,1010.76
2018-07-14T01:37:48.839Z,1010.76
2018-07-14T01:38:48.821Z,1010.77
2018-07-14T01:39:48.816Z,1010.78
2018-07-14T01:40:48.790Z,1010.78
2018-07-14T01:41:48.771Z,1010.78
2018-07-14T01:42:48.756Z,1010.78
2018-07-14T01:43:48.738Z,1010.77
2018-07-14T01:44:48.733Z,1010.79
2018-07-14T01:45:48.707Z,1010.78
2018-07-14T01:46:48.689Z,1010.77
2018-07-14T01:47:48.675Z,1010.74
2018-07-14T01:48:48.656Z,1010.75
2018-07-14T01:49:48.650Z,1010.72
2018-07-14T01:50:48.623Z,1010.76
2018-07-14T01:51:48.605Z,1010.72
2018-07-14T01:52:48.589Z,1010.74
2018-07-14T01:53:48.572Z,1010.75
2018-07-14T01:54:48.568Z,1010.75
2018-07-14T01:55:48.545Z,1010.71
2018-07-14T01:56:48.521Z,1010.75
2018-07-14T01:57:48.505Z,1010.73
2018-07-14T01:58:48.488Z,1010.73
2018-07-14T01:59:48.484Z,1010.74
2018-07-14T02:00:48.455Z,1010.74
2018-07-14T02:01:48.439Z,1010.73
2018-07-14T02:02:48.423Z,1010.73
2018-07-14T02:03:48.406Z,1010.76
2018-07-14T02:04:48.410Z,1010.77
2018-07-14T02:05:48.376Z,1010.82
2018-07-14T02:06:48.356Z,1010.81
2018-07-14T02:07:48.340Z,1010.80
2018-07-14T02:08:48.325Z,1010.86
2018-07-14T02:09:48.307Z,1010.81
2018-07-14T02:10:48.302Z,1010.85
2018-07-14T02:11:48.274Z,1010.82
2018-07-14T02:12:48.257Z,1010.82
2018-07-14T02:13:48.241Z,1010.80
2018-07-14T02:14:48.224Z,1010.86
2018-07-14T02:15:48.224Z,1010.87
2018-07-14T02:16:48.189Z,1010.90
2018-07-14T02:17:48.173Z,1010.92
2018-07-14T02:18:48.158Z,1010.92
2018-07-14T02:19:48.144Z,1010.86
2018-07-14T02:20:48.124Z,1010.90
2018-07-14T02:21:48.118Z,1010.91
2018-07-14T02:22:48.094Z,1010.91
2018-07-14T02:23:48.076Z,1010.87
2018-07-14T02:24:48.058Z,1010.89
2018-07-14T02:25:48.041Z,1010.91
2018-07-14T02:26:48.040Z,1010.89
2018-07-14T02:27:48.010Z,1010.89
2018-07-14T02:28:47.991Z,1010.85
2018-07-14T02:29:47.975Z,1010.90
2018-07-14T02:30:47.962Z,1010.88
2018-07-14T02:31:47.943Z,1010.90
2018-07-14T02:32:47.944Z,1010.91
2018-07-14T02:33:47.909Z,1010.89
2018-07-14T02:34:47.892Z,1010.88
2018-07-14T02:35:47.876Z,1010.88
2018-07-14T02:36:47.859Z,1010.89
2018-07-14T02:37:47.852Z,1010.84
2018-07-14T02:38:47.841Z,1010.89
2018-07-14T02:39:47.809Z,1010.90
2018-07-14T02:40:47.792Z,1010.91
2018-07-14T02:41:47.776Z,1010.88
2018-07-14T02:42:47.760Z,1010.88
2018-07-14T02:43:47.759Z,1010.86
2018-07-14T02:44:47.727Z,1010.84
2018-07-14T02:45:47.709Z,1010.83
2018-07-14T02:46:47.696Z,1010.81
2018-07-14T02:47:47.677Z,1010.81
2018-07-14T02:48:47.664Z,1010.79
2018-07-14T02:49:47.654Z,1010.84
2018-07-14T02:50:47.626Z,1010.88
2018-07-14T02:51:47.609Z,1010.86
2018-07-14T02:52:47.593Z,1010.88
2018-07-14T02:53:47.581Z,1010.91
2018-07-14T02:54:47.570Z,1010.90
2018-07-14T02:55:47.542Z,1010.91
2018-07-14T02:56:47.525Z,1010.93
2018-07-14T02:57:47.510Z,1010.90
2018-07-14T02:58:47.493Z,1010.88
2018-07-14T02:59:47.522Z,1010.89
2018-07-14T03:00:47.458Z,1010.90
2018-07-14T03:01:47.442Z,1010.89
2018-07-14T03:02:47.428Z,1010.94
2018-07-14T03:03:47.409Z,1010.90
2018-07-14T03:04:47.401Z,1010.88
2018-07-14T03:05:47.380Z,1010.87
2018-07-14T03:06:47.360Z,1010.90
2018-07-14T03:07:47.344Z,1010.90
2018-07-14T03:08:47.325Z,1010.89
2018-07-14T03:09:47.318Z,1010.89
2018-07-14T03:10:47.302Z,1010.92
2018-07-14T03:11:47.276Z,1010.94
2018-07-14T03:12:47.267Z,1010.96
2018-07-14T03:13:47.241Z,1010.91
2018-07-14T03:14:47.233Z,1010.90
2018-07-14T03:15:47.208Z,1010.94
2018-07-14T03:16:47.192Z,1010.86
2018-07-14T03:17:47.174Z,1010.88
2018-07-14T03:18:47.158Z,1010.92
2018-07-14T03:19:47.157Z,1010.90
2018-07-14T03:20:47.124Z,1010.89
2018-07-14T03:21:47.107Z,1010.91
2018-07-14T03:22:47.090Z,1010.85
2018-07-14T03:23:47.073Z,1010.85
2018-07-14T03:24:47.056Z,1010.82
2018-07-14T03:25:47.050Z,1010.85
2018-07-14T03:26:47.024Z,1010.86
2018-07-14T03:27:47.007Z,1010.86
2018-07-14T03:28:46.989Z,1010.85
2018-07-14T03:29:46.973Z,1010.86
2018-07-14T03:30:46.971Z,1010.83
2018-07-14T03:31:46.945Z,1010.84
2018-07-14T03:32:46.926Z,1010.87
2018-07-14T03:33:46.905Z,1010.85
2018-07-14T03:34:46.890Z,1010.85
2018-07-14T03:35:46.885Z,1010.88
2018-07-14T03:36:46.894Z,1010.84
2018-07-14T03:37:46.838Z,1010.87
2018-07-14T03:38:46.822Z,1010.85
2018-07-14T03:39:46.805Z,1010.84
2018-07-14T03:40:46.809Z,1010.82
2018-07-14T03:41:46.771Z,1010.89
2018-07-14T03:42:46.756Z,1010.87
2018-07-14T03:43:46.737Z,1010.87
2018-07-14T03:44:46.718Z,1010.89
2018-07-14T03:45:46.702Z,1010.89
2018-07-14T03:46:46.697Z,1010.85
2018-07-14T03:47:46.670Z,1010.88
2018-07-14T03:48:46.651Z,1010.89
2018-07-14T03:49:46.636Z,1010.83
2018-07-14T03:50:46.619Z,1010.88
2018-07-14T03:51:46.615Z,1010.89
2018-07-14T03:52:46.587Z,1010.87
2018-07-14T03:53:46.568Z,1010.90
2018-07-14T03:54:46.552Z,1010.88
2018-07-14T03:55:46.537Z,1010.87
2018-07-14T03:56:46.592Z,1010.90
2018-07-14T03:57:46.499Z,1010.91
2018-07-14T03:58:46.484Z,1010.88
2018-07-14T03:59:46.466Z,1010.90
2018-07-14T04:00:46.450Z,1010.88
2018-07-14T04:01:46.430Z,1010.88
2018-07-14T04:02:46.425Z,1010.84
2018-07-14T04:03:46.398Z,1010.88
2018-07-14T04:04:46.383Z,1010.86
2018-07-14T04:05:46.362Z,1010.84
2018-07-14T04:06:46.346Z,1010.85
2018-07-14T04:07:46.341Z,1010.87
2018-07-14T04:08:46.316Z,1010.90
2018-07-14T04:09:46.295Z,1010.91
2018-07-14T04:10:46.279Z,1010.89
2018-07-14T04:11:46.261Z,1010.91
2018-07-14T04:12:46.265Z,1010.93
2018-07-14T04:13:46.226Z,1010.92
2018-07-14T04:14:46.241Z,1010.91
2018-07-14T04:15:46.197Z,1010.92
2018-07-14T04:16:46.179Z,1010.93
2018-07-14T04:17:46.161Z,1010.93
2018-07-14T04:18:46.154Z,1010.90
2018-07-14T04:19:46.126Z,1010.89
2018-07-14T04:20:46.107Z,1010.88
2018-07-14T04:21:46.091Z,1010.90
2018-07-14T04:22:46.074Z,1010.91
2018-07-14T04:23:46.069Z,1010.94
2018-07-14T04:24:46.040Z,1010.91
2018-07-14T04:25:46.024Z,1010.90
2018-07-14T04:26:46.010Z,1010.93
2018-07-14T04:27:45.989Z,1010.93
2018-07-14T04:28:45.984Z,1010.97
2018-07-14T04:29:45.954Z,1010.94
2018-07-14T04:30:45.938Z,1010.98
2018-07-14T04:31:45.921Z,1010.97
2018-07-14T04:32:45.903Z,1010.93
2018-07-14T04:33:45.896Z,1010.97
2018-07-14T04:34:45.871Z,1011.01
2018-07-14T04:35:45.853Z,1010.97
2018-07-14T04:36:45.835Z,1010.99
2018-07-14T04:37:45.820Z,1010.98
2018-07-14T04:38:45.813Z,1011.00
2018-07-14T04:39:45.784Z,1011.01
2018-07-14T04:40:45.767Z,1010.99
2018-07-14T04:41:45.750Z,1011.02
2018-07-14T04:42:45.732Z,1011.02
2018-07-14T04:43:45.737Z,1011.04
2018-07-14T04:44:45.702Z,1011.05
2018-07-14T04:45:45.682Z,1011.07
2018-07-14T04:46:45.667Z,1011.07
2018-07-14T04:47:45.648Z,1011.06
2018-07-14T04:48:45.631Z,1011.10
2018-07-14T04:49:45.628Z,1011.09
2018-07-14T04:50:45.597Z,1011.12
2018-07-14T04:51:45.581Z,1011.10
2018-07-14T04:52:45.563Z,1011.09
2018-07-14T04:53:45.545Z,1011.15
2018-07-14T04:54:45.532Z,1011.13
2018-07-14T04:55:45.528Z,1011.12
2018-07-14T04:56:45.495Z,1011.15
2018-07-14T04:57:45.476Z,1011.11
2018-07-14T04:58:45.461Z,1011.15
2018-07-14T04:59:45.445Z,1011.13
2018-07-14T05:00:45.425Z,1011.12
2018-07-14T05:01:45.426Z,1011.13
2018-07-14T05:02:45.396Z,1011.12
2018-07-14T05:03:45.376Z,1011.15
2018-07-14T05:04:45.360Z,1011.18
2018-07-14T05:05:45.340Z,1011.13
2018-07-14T05:06:45.343Z,1011.14
2018-07-14T05:07:45.310Z,1011.15
2018-07-14T05:08:45.291Z,1011.16
2018-07-14T05:09:45.275Z,1011.14
2018-07-14T05:10:45.259Z,1011.16
2018-07-14T05:11:45.240Z,1011.16
2018-07-14T05:12:45.233Z,1011.18
2018-07-14T05:13:45.207Z,1011.14
2018-07-14T05:14:45.191Z,1011.17
2018-07-14T05:15:45.172Z,1011.21
2018-07-14T05:16:45.161Z,1011.17
2018-07-14T05:17:45.422Z,1011.17
2018-07-14T05:18:45.125Z,1011.18
2018-07-14T05:19:45.107Z,1011.17
2018-07-14T05:20:45.089Z,1011.16
2018-07-14T05:21:45.078Z,1011.15
2018-07-14T05:22:45.069Z,1011.15
2018-07-14T05:23:45.040Z,1011.17
2018-07-14T05:24:45.028Z,1011.13
2018-07-14T05:25:45.007Z,1011.11
2018-07-14T05:26:44.994Z,1011.10
2018-07-14T05:27:44.988Z,1011.10
2018-07-14T05:28:44.957Z,1011.12
2018-07-14T05:29:44.939Z,1011.09
2018-07-14T05:30:44.925Z,1011.05
2018-07-14T05:31:44.906Z,1011.08
2018-07-14T05:32:44.888Z,1011.09
2018-07-14T05:33:44.885Z,1011.10
2018-07-14T05:34:44.857Z,1011.11
2018-07-14T05:35:44.839Z,1011.13
2018-07-14T05:36:44.822Z,1011.15
2018-07-14T05:37:44.806Z,1011.15
2018-07-14T05:38:44.810Z,1011.15
2018-07-14T05:39:44.773Z,1011.13
2018-07-14T05:40:44.759Z,1011.16
2018-07-14T05:41:44.739Z,1011.18
2018-07-14T05:42:44.723Z,1011.20
2018-07-14T05:43:44.719Z,1011.18
2018-07-14T05:44:44.700Z,1011.21
2018-07-14T05:45:44.674Z,1011.22
2018-07-14T05:46:44.657Z,1011.26
2018-07-14T05:47:44.641Z,1011.21
2018-07-14T05:48:44.624Z,1011.27
2018-07-14T05:49:44.634Z,1011.27
2018-07-14T05:50:44.592Z,1011.23
2018-07-14T05:51:44.576Z,1011.25
2018-07-14T05:52:44.559Z,1011.22
2018-07-14T05:53:44.547Z,1011.26
2018-07-14T05:54:44.527Z,1011.22
2018-07-14T05:55:44.522Z,1011.23
2018-07-14T05:56:44.494Z,1011.27
2018-07-14T05:57:44.479Z,1011.20
2018-07-14T05:58:44.466Z,1011.23
2018-07-14T05:59:44.446Z,1011.25
2018-07-14T06:00:44.445Z,1011.22
2018-07-14T06:01:44.413Z,1011.25
2018-07-14T06:02:44.399Z,1011.24
2018-07-14T06:03:44.382Z,1011.23
2018-07-14T06:04:44.366Z,1011.26
2018-07-14T06:05:44.363Z,1011.29
2018-07-14T06:06:44.337Z,1011.28
2018-07-14T06:07:44.358Z,1011.30
2018-07-14T06:08:44.303Z,1011.31
2018-07-14T06:09:44.290Z,1011.33
2018-07-14T06:10:44.286Z,1011.35
2018-07-14T06:11:44.259Z,1011.37
2018-07-14T06:12:44.243Z,1011.35
2018-07-14T06:13:44.229Z,1011.39
2018-07-14T06:14:44.215Z,1011.39
2018-07-14T06:15:44.211Z,1011.40
2018-07-14T06:16:44.187Z,1011.41
2018-07-14T06:17:44.170Z,1011.41
2018-07-14T06:18:44.153Z,1011.44
2018-07-14T06:19:44.140Z,1011.43
2018-07-14T06:20:44.135Z,1011.48
2018-07-14T06:21:44.111Z,1011.47
2018-07-14T06:22:44.099Z,1011.46
2018-07-14T06:23:44.080Z,1011.48
2018-07-14T06:24:44.066Z,1011.49
2018-07-14T06:25:44.062Z,1011.49
2018-07-14T06:26:44.037Z,1011.43
2018-07-14T06:27:44.022Z,1011.43
2018-07-14T06:28:44.008Z,1011.43
2018-07-14T06:29:44.001Z,1011.44
2018-07-14T06:30:43.998Z,1011.39
2018-07-14T06:31:43.979Z,1011.46
2018-07-14T06:32:43.952Z,1011.41
2018-07-14T06:33:43.935Z,1011.38
2018-07-14T06:34:43.924Z,1011.40
2018-07-14T06:35:43.909Z,1011.41
2018-07-14T06:36:43.908Z,1011.43
2018-07-14T06:37:43.892Z,1011.41
2018-07-14T06:38:43.985Z,1011.42
2018-07-14T06:39:43.848Z,1011.42
2018-07-14T06:40:43.837Z,1011.44
2018-07-14T06:41:43.824Z,1011.45
2018-07-14T06:42:43.824Z,1011.46
2018-07-14T06:43:43.798Z,1011.52
2018-07-14T06:44:43.817Z,1011.51
2018-07-14T06:45:43.769Z,1011.51
2018-07-14T06:46:43.756Z,1011.54
2018-07-14T06:47:43.753Z,1011.50
2018-07-14T06:48:43.735Z,1011.51
2018-07-14T06:49:43.716Z,1011.51
2018-07-14T06:50:43.700Z,1011.51
2018-07-14T06:51:43.690Z,1011.49
2018-07-14T06:52:43.684Z,1011.52
2018-07-14T06:53:43.660Z,1011.49
2018-07-14T06:54:43.646Z,1011.49
2018-07-14T06:55:43.633Z,1011.51
2018-07-14T06:56:43.620Z,1011.49
2018-07-14T06:57:43.621Z,1011.49
2018-07-14T06:58:43.592Z,1011.52
2018-07-14T06:59:43.580Z,1011.49
2018-07-14T07:00:43.565Z,1011.50
2018-07-14T07:01:43.552Z,1011.49
2018-07-14T07:02:43.549Z,1011.46
2018-07-14T07:03:43.526Z,1011.46
2018-07-14T07:04:43.513Z,1011.49
2018-07-14T07:05:43.500Z,1011.51
2018-07-14T07:06:43.489Z,1011.51
2018-07-14T07:07:43.481Z,1011.47
2018-07-14T07:08:43.467Z,1011.49
2018-07-14T07:09:43.448Z,1011.50
2018-07-14T07:10:43.434Z,1011.51
2018-07-14T07:11:43.421Z,1011.52
2018-07-14T07:12:43.428Z,1011.48
2018-07-14T07:13:43.438Z,1011.49
2018-07-14T07:14:43.385Z,1011.52
2018-07-14T07:15:43.371Z,1011.53
2018-07-14T07:16:43.357Z,1011.54
2018-07-14T07:17:43.344Z,1011.53
2018-07-14T07:18:43.344Z,1011.52
2018-07-14T07:19:43.322Z,1011.52
2018-07-14T07:20:43.305Z,1011.55
2018-07-14T07:21:43.292Z,1011.55
2018-07-14T07:22:43.279Z,1011.52
2018-07-14T07:23:43.278Z,1011.52
2018-07-14T07:24:43.255Z,1011.56
2018-07-14T07:25:43.241Z,1011.54
2018-07-14T07:26:43.230Z,1011.53
2018-07-14T07:27:43.218Z,1011.54
2018-07-14T07:28:43.248Z,1011.52
2018-07-14T07:29:43.189Z,1011.57
2018-07-14T07:30:43.177Z,1011.55
2018-07-14T07:31:43.169Z,1011.54
2018-07-14T07:32:43.156Z,1011.57
2018-07-14T07:33:43.139Z,1011.58
2018-07-14T07:34:43.228Z,1011.58
2018-07-14T07:35:43.114Z,1011.59
2018-07-14T07:36:43.102Z,1011.60
2018-07-14T07:37:43.090Z,1011.59
2018-07-14T07:38:43.079Z,1011.58
2018-07-14T07:39:43.080Z,1011.62
2018-07-14T07:40:43.051Z,1011.61
2018-07-14T07:41:43.040Z,1011.59
2018-07-14T07:42:43.027Z,1011.59
2018-07-14T07:43:43.015Z,1011.63
2018-07-14T07:44:43.002Z,1011.62
2018-07-14T07:45:43.000Z,1011.60
2018-07-14T07:46:42.976Z,1011.62
2018-07-14T07:47:42.965Z,1011.60
2018-07-14T07:48:42.954Z,1011.61
2018-07-14T07:49:42.943Z,1011.57
2018-07-14T07:50:42.932Z,1011.59
2018-07-14T07:51:42.912Z,1011.58
2018-07-14T07:52:42.908Z,1011.56
2018-07-14T07:53:42.889Z,1011.55
2018-07-14T07:54:42.878Z,1011.53
2018-07-14T07:55:42.880Z,1011.52
2018-07-14T07:56:42.852Z,1011.54
2018-07-14T07:57:42.838Z,1011.52
2018-07-14T07:58:42.825Z,1011.53
2018-07-14T07:59:42.815Z,1011.52
2018-07-14T08:00:42.801Z,1011.55
2018-07-14T08:01:42.798Z,1011.54
2018-07-14T08:02:42.774Z,1011.54
2018-07-14T08:03:42.762Z,1011.56
2018-07-14T08:04:42.751Z,1011.51
2018-07-14T08:05:42.735Z,1011.51
2018-07-14T08:06:42.740Z,1011.56
2018-07-14T08:07:42.713Z,1011.52
2018-07-14T08:08:42.783Z,1011.49
2018-07-14T08:09:42.686Z,1011.48
2018-07-14T08:10:42.673Z,1011.46
2018-07-14T08:11:42.661Z,1011.46
2018-07-14T08:12:42.666Z,1011.48
2018-07-14T08:13:42.635Z,1011.50
2018-07-14T08:14:42.624Z,1011.46
2018-07-14T08:15:42.612Z,1011.50
2018-07-14T08:16:42.600Z,1011.45
2018-07-14T08:17:42.587Z,1011.46
2018-07-14T08:18:42.586Z,1011.47
2018-07-14T08:19:42.561Z,1011.49
2018-07-14T08:20:42.548Z,1011.46
2018-07-14T08:21:42.535Z,1011.47
2018-07-14T08:22:42.536Z,1011.49
2018-07-14T08:23:42.528Z,1011.50
2018-07-14T08:24:42.497Z,1011.48
2018-07-14T08:25:42.488Z,1011.48
2018-07-14T08:26:42.473Z,1011.48
2018-07-14T08:27:42.462Z,1011.47
2018-07-14T08:28:42.447Z,1011.48
2018-07-14T08:29:42.454Z,1011.46
2018-07-14T08:30:42.423Z,1011.44
2018-07-14T08:31:42.412Z,1011.51
2018-07-14T08:32:42.398Z,1011.44
2018-07-14T08:33:42.386Z,1011.44
2018-07-14T08:34:42.373Z,1011.43
2018-07-14T08:35:42.375Z,1011.42
2018-07-14T08:36:42.347Z,1011.40
2018-07-14T08:37:42.335Z,1011.35
2018-07-14T08:38:42.325Z,1011.36
2018-07-14T08:39:42.313Z,1011.37
2018-07-14T08:40:42.308Z,1011.32
2018-07-14T08:41:42.289Z,1011.33
2018-07-14T08:42:42.277Z,1011.31
2018-07-14T08:43:42.329Z,1011.32
2018-07-14T08:44:42.253Z,1011.30
2018-07-14T08:45:42.247Z,1011.27
2018-07-14T08:46:42.227Z,1011.28
2018-07-14T08:47:42.211Z,1011.28
2018-07-14T08:48:42.199Z,1011.29
2018-07-14T08:49:42.188Z,1011.30
2018-07-14T08:50:42.195Z,1011.29
2018-07-14T08:51:42.163Z,1011.26
2018-07-14T08:52:42.148Z,1011.26
2018-07-14T08:53:42.136Z,1011.26
2018-07-14T08:54:42.125Z,1011.25
2018-07-14T08:55:42.114Z,1011.26
2018-07-14T08:56:42.115Z,1011.25
2018-07-14T08:57:42.085Z,1011.23
2018-07-14T08:58:42.074Z,1011.27
2018-07-14T08:59:42.063Z,1011.24
2018-07-14T09:00:42.054Z,1011.24
2018-07-14T09:01:42.038Z,1011.19
2018-07-14T09:02:42.061Z,1011.23
2018-07-14T09:03:42.056Z,1011.20
2018-07-14T09:04:42.001Z,1011.20
2018-07-14T09:05:41.988Z,1011.21
2018-07-14T09:06:41.979Z,1011.20
2018-07-14T09:07:41.964Z,1011.21
2018-07-14T09:08:41.964Z,1011.21
2018-07-14T09:09:41.941Z,1011.19
2018-07-14T09:10:41.928Z,1011.18
2018-07-14T09:11:41.916Z,1011.16
2018-07-14T09:12:41.909Z,1011.17
2018-07-14T09:13:41.918Z,1011.17
2018-07-14T09:14:41.878Z,1011.16
2018-07-14T09:15:41.868Z,1011.15
2018-07-14T09:16:41.860Z,1011.15
2018-07-14T09:17:41.850Z,1011.16
2018-07-14T09:18:41.830Z,1011.13
2018-07-14T09:19:41.854Z,1011.15
2018-07-14T09:20:41.805Z,1011.13
2018-07-14T09:21:41.794Z,1011.12
2018-07-14T09:22:41.782Z,1011.16
2018-07-14T09:23:41.801Z,1011.14
2018-07-14T09:24:41.757Z,1011.08
2018-07-14T09:25:41.756Z,1011.11
2018-07-14T09:26:41.734Z,1011.10
2018-07-14T09:27:41.723Z,1011.07
2018-07-14T09:28:41.710Z,1011.09
2018-07-14T09:29:41.698Z,1011.10
2018-07-14T09:30:41.697Z,1011.05
2018-07-14T09:31:41.673Z,1011.05
2018-07-14T09:32:41.736Z,1011.05
2018-07-14T09:33:41.656Z,1011.00
2018-07-14T09:34:41.643Z,1011.06
2018-07-14T09:35:41.637Z,1011.01
2018-07-14T09:36:41.615Z,1011.04
2018-07-14T09:37:41.607Z,1011.00
2018-07-14T09:38:41.596Z,1010.99
2018-07-14T09:39:41.580Z,1011.01
2018-07-14T09:40:41.590Z,1011.01
2018-07-14T09:41:41.556Z,1010.99
2018-07-14T09:42:41.547Z,1010.97
2018-07-14T09:43:41.536Z,1010.95
2018-07-14T09:44:41.559Z,1010.95
2018-07-14T09:45:41.529Z,1010.94
2018-07-14T09:46:41.527Z,1010.93
2018-07-14T09:47:41.522Z,1010.91
2018-07-14T09:48:41.480Z,1010.89
2018-07-14T09:49:41.475Z,1010.88
2018-07-14T09:50:41.479Z,1010.88
2018-07-14T09:51:41.443Z,1010.89
2018-07-14T09:52:41.430Z,1010.86
2018-07-14T09:53:41.420Z,1010.87
2018-07-14T09:54:41.407Z,1010.86
2018-07-14T09:55:41.406Z,1010.89
2018-07-14T09:56:41.385Z,1010.83
2018-07-14T09:57:41.373Z,1010.84
2018-07-14T09:58:41.362Z,1010.91
2018-07-14T09:59:41.351Z,1010.84
2018-07-14T10:00:41.359Z,1010.85
2018-07-14T10:01:41.338Z,1010.80
2018-07-14T10:02:41.318Z,1010.84
2018-07-14T10:03:41.308Z,1010.85
2018-07-14T10:04:41.294Z,1010.86
2018-07-14T10:05:41.283Z,1010.85
2018-07-14T10:06:41.285Z,1010.83
2018-07-14T10:07:41.266Z,1010.83
2018-07-14T10:08:41.250Z,1010.82
2018-07-14T10:09:41.240Z,1010.79
2018-07-14T10:10:41.226Z,1010.80
2018-07-14T10:11:41.240Z,1010.76
2018-07-14T10:12:41.202Z,1010.79
2018-07-14T10:13:41.196Z,1010.78
2018-07-14T10:14:41.184Z,1010.77
2018-07-14T10:15:41.180Z,1010.78
2018-07-14T10:16:41.173Z,1010.79
2018-07-14T10:17:41.214Z,1010.73
2018-07-14T10:18:41.140Z,1010.73
2018-07-14T10:19:41.143Z,1010.70
2018-07-14T10:20:41.117Z,1010.69
2018-07-14T10:21:41.123Z,1010.73
2018-07-14T10:22:41.100Z,1010.71
2018-07-14T10:23:41.085Z,1010.70
2018-07-14T10:24:41.079Z,1010.70
2018-07-14T10:25:41.214Z,1010.71
2018-07-14T10:26:41.059Z,1010.70
2018-07-14T10:27:41.056Z,1010.68
2018-07-14T10:28:41.032Z,1010.66
2018-07-14T10:29:41.020Z,1010.63
2018-07-14T10:30:41.042Z,1010.64
2018-07-14T10:31:41.010Z,1010.66
2018-07-14T10:32:40.987Z,1010.65
2018-07-14T10:33:41.028Z,1010.65
2018-07-14T10:34:41.004Z,1010.64
2018-07-14T10:35:40.955Z,1010.63
2018-07-14T10:36:40.980Z,1010.61
2018-07-14T10:37:40.934Z,1010.63
2018-07-14T10:38:40.956Z,1010.61
2018-07-14T10:39:40.913Z,1010.61
2018-07-14T10:40:40.909Z,1010.59
2018-07-14T10:41:40.896Z,1010.61
2018-07-14T10:42:40.937Z,1010.60
2018-07-14T10:43:40.881Z,1010.58
2018-07-14T10:44:40.860Z,1010.65
2018-07-14T10:45:40.849Z,1010.57
2018-07-14T10:46:40.897Z,1010.58
2018-07-14T10:47:40.834Z,1010.59
2018-07-14T10:48:40.830Z,1010.60
2018-07-14T10:49:40.808Z,1010.62
2018-07-14T10:50:40.798Z,1010.61
2018-07-14T10:51:40.868Z,1010.58
2018-07-14T10:52:40.780Z,1010.62
2018-07-14T10:53:40.777Z,1010.63
2018-07-14T10:54:40.758Z,1010.59
2018-07-14T10:55:40.748Z,1010.61
2018-07-14T10:56:40.736Z,1010.60
2018-07-14T10:57:40.726Z,1010.60
2018-07-14T10:58:40.726Z,1010.60
2018-07-14T10:59:40.717Z,1010.61
2018-07-14T11:00:40.699Z,1010.54
2018-07-14T11:01:40.686Z,1010.53
2018-07-14T11:02:40.677Z,1010.49
2018-07-14T11:03:40.687Z,1010.48
2018-07-14T11:04:40.656Z,1010.47
2018-07-14T11:05:40.645Z,1010.41
2018-07-14T11:06:40.638Z,1010.49
2018-07-14T11:07:40.627Z,1010.44
2018-07-14T11:08:40.617Z,1010.45
2018-07-14T11:09:40.617Z,1010.46
2018-07-14T11:10:40.595Z,1010.47
2018-07-14T11:11:40.587Z,1010.45
2018-07-14T11:12:40.576Z,1010.46
2018-07-14T11:13:40.566Z,1010.47
2018-07-14T11:14:40.572Z,1010.39
2018-07-14T11:15:40.547Z,1010.44
2018-07-14T11:16:40.542Z,1010.41
2018-07-14T11:17:40.574Z,1010.41
2018-07-14T11:18:40.519Z,1010.32
2018-07-14T11:19:40.508Z,1010.38
2018-07-14T11:20:40.511Z,1010.35
2018-07-14T11:21:40.483Z,1010.36
2018-07-14T11:22:40.477Z,1010.38
2018-07-14T11:23:40.528Z,1010.39
2018-07-14T11:24:40.465Z,1010.35
2018-07-14T11:25:40.467Z,1010.34
2018-07-14T11:26:40.450Z,1010.32
2018-07-14T11:27:40.426Z,1010.31
2018-07-14T11:28:40.423Z,1010.27
2018-07-14T11:29:40.410Z,1010.25
2018-07-14T11:30:40.403Z,1010.23
2018-07-14T11:31:40.405Z,1010.15
2018-07-14T11:32:40.385Z,1010.29
2018-07-14T11:33:40.374Z,1010.26
2018-07-14T11:34:40.483Z,1010.26
2018-07-14T11:35:40.354Z,1010.22
2018-07-14T11:36:40.355Z,1010.23
2018-07-14T11:37:40.436Z,1010.21
2018-07-14T11:38:40.325Z,1010.16
2018-07-14T11:39:40.316Z,1010.16
2018-07-14T11:40:40.322Z,1010.15
2018-07-14T11:41:40.323Z,1010.15
2018-07-14T11:42:40.287Z,1010.15
2018-07-14T11:43:40.278Z,1010.18
2018-07-14T11:44:40.267Z,1010.14
2018-07-14T11:45:40.258Z,1010.17
2018-07-14T11:46:40.248Z,1010.20
2018-07-14T11:47:40.374Z,1010.17
2018-07-14T11:48:40.230Z,1010.06
2018-07-14T11:49:40.218Z,1009.93
2018-07-14T11:50:40.210Z,1010.10
2018-07-14T11:51:40.204Z,1010.09
2018-07-14T11:52:40.205Z,1010.07
2018-07-14T11:53:40.186Z,1010.18
2018-07-14T11:54:40.173Z,1010.16
2018-07-14T11:55:40.166Z,1010.18
2018-07-14T11:56:40.155Z,1010.15
2018-07-14T11:57:40.166Z,1010.18
2018-07-14T11:58:40.137Z,1010.13
2018-07-14T11:59:40.127Z,1010.20
2018-07-14T12:00:40.116Z,1010.20
2018-07-14T12:01:40.108Z,1010.19
2018-07-14T12:02:40.103Z,1010.12
2018-07-14T12:03:40.101Z,1010.16
2018-07-14T12:04:40.080Z,1010.12
2018-07-14T12:05:40.071Z,1010.15